createdAt,value
2023-05-22T00:01:07.557Z,81.89
2023-05-22T00:03:36.545Z,82.00
2023-05-22T00:06:04.037Z,81.93
2023-05-22T00:08:31.493Z,82.15
2023-05-22T00:10:58.582Z,82.22
2023-05-22T00:13:25.852Z,82.38
2023-05-22T00:15:53.659Z,82.40
2023-05-22T00:18:20.740Z,82.20
2023-05-22T00:20:47.823Z,81.79
2023-05-22T00:23:15.677Z,81.82
2023-05-22T00:25:42.948Z,81.50
2023-05-22T00:28:12.053Z,81.17
2023-05-22T00:30:39.376Z,81.14
2023-05-22T00:33:06.814Z,81.09
2023-05-22T00:35:34.107Z,81.04
2023-05-22T00:38:03.723Z,81.48
2023-05-22T00:40:30.768Z,81.78
2023-05-22T00:42:57.821Z,82.17
2023-05-22T00:45:24.877Z,82.58
2023-05-22T00:47:52.515Z,82.79
2023-05-22T00:50:19.768Z,82.83
2023-05-22T00:52:46.971Z,83.02
2023-05-22T00:55:14.682Z,83.29
2023-05-22T00:57:42.317Z,83.21
2023-05-22T01:00:14.209Z,83.44
2023-05-22T01:02:43.422Z,83.46
2023-05-22T01:05:13.576Z,83.58
2023-05-22T01:07:40.850Z,83.56
2023-05-22T01:10:08.519Z,83.63
2023-05-22T01:12:42.306Z,83.74
2023-05-22T01:15:49.981Z,83.83
2023-05-22T01:18:30.510Z,84.16
2023-05-22T01:21:24.305Z,84.15
2023-05-22T01:24:06.995Z,84.25
2023-05-22T01:26:57.968Z,84.32
2023-05-22T01:29:46.614Z,84.46
2023-05-22T01:32:16.916Z,84.61
2023-05-22T01:34:45.435Z,84.55
2023-05-22T01:37:12.794Z,84.81
2023-05-22T01:39:40.254Z,84.87
2023-05-22T01:42:10.228Z,85.04
2023-05-22T01:44:37.353Z,85.37
2023-05-22T01:47:06.069Z,85.61
2023-05-22T01:49:33.762Z,85.75
2023-05-22T01:52:10.854Z,85.98
2023-05-22T01:55:13.748Z,86.05
2023-05-22T01:57:46.971Z,86.33
2023-05-22T02:00:14.751Z,86.35
2023-05-22T02:02:49.817Z,86.47
2023-05-22T02:05:19.275Z,86.52
2023-05-22T02:07:46.527Z,86.70
2023-05-22T02:10:14.577Z,86.98
2023-05-22T02:12:41.617Z,87.26
2023-05-22T02:15:09.118Z,87.76
2023-05-22T02:17:42.720Z,87.93
2023-05-22T02:20:15.528Z,87.88
2023-05-22T02:22:47.835Z,88.10
2023-05-22T02:25:17.537Z,88.60
2023-05-22T02:27:45.985Z,88.97
2023-05-22T02:30:18.115Z,89.14
2023-05-22T02:32:48.310Z,89.26
2023-05-22T02:35:15.449Z,89.43
2023-05-22T02:37:42.567Z,89.56
2023-05-22T02:40:10.290Z,89.66
2023-05-22T02:42:37.427Z,89.93
2023-05-22T02:45:05.624Z,90.50
2023-05-22T02:47:33.009Z,90.92
2023-05-22T02:50:00.144Z,91.42
2023-05-22T02:52:28.702Z,92.24
2023-05-22T02:54:55.950Z,92.68
2023-05-22T02:57:23.403Z,92.59
2023-05-22T02:59:51.444Z,92.27
2023-05-22T03:02:18.932Z,91.93
2023-05-22T03:04:46.808Z,91.42
2023-05-22T03:07:13.919Z,91.03
2023-05-22T03:09:41.672Z,90.06
2023-05-22T03:12:09.662Z,89.14
2023-05-22T03:14:37.110Z,88.20
2023-05-22T03:17:04.359Z,87.40
2023-05-22T03:19:31.826Z,86.95
2023-05-22T03:21:59.473Z,86.67
2023-05-22T03:24:27.343Z,86.25
2023-05-22T03:26:54.800Z,86.04
2023-05-22T03:29:30.717Z,85.59
2023-05-22T03:31:58.424Z,85.47
2023-05-22T03:34:27.522Z,85.11
2023-05-22T03:36:55.077Z,84.72
2023-05-22T03:39:22.381Z,84.14
2023-05-22T03:41:55.001Z,83.97
2023-05-22T03:44:24.729Z,83.58
2023-05-22T03:46:52.132Z,82.86
2023-05-22T03:49:21.265Z,82.22
2023-05-22T03:51:48.427Z,81.44
2023-05-22T03:54:16.297Z,80.14
2023-05-22T03:56:43.857Z,79.19
2023-05-22T03:59:11.196Z,78.76
2023-05-22T04:01:39.697Z,78.28
2023-05-22T04:04:07.542Z,77.76
2023-05-22T04:06:43.504Z,77.13
2023-05-22T04:09:13.213Z,75.70
2023-05-22T04:11:40.454Z,74.09
2023-05-22T04:14:07.580Z,72.17
2023-05-22T04:16:34.928Z,69.61
2023-05-22T04:19:03.641Z,68.29
2023-05-22T04:21:34.510Z,67.34
2023-05-22T04:24:02.843Z,67.05
2023-05-22T04:26:32.293Z,66.09
2023-05-22T04:28:59.486Z,65.05
2023-05-22T04:31:29.435Z,64.12
2023-05-22T04:33:56.557Z,64.01
2023-05-22T04:36:26.471Z,63.33
2023-05-22T04:38:54.465Z,62.62
2023-05-22T04:41:26.933Z,62.57
2023-05-22T04:43:54.880Z,61.93
2023-05-22T04:46:22.333Z,61.26
2023-05-22T04:48:50.004Z,61.11
2023-05-22T04:51:17.462Z,60.18
2023-05-22T04:53:46.553Z,59.79
2023-05-22T04:56:16.573Z,59.46
2023-05-22T04:58:51.402Z,59.14
2023-05-22T05:01:18.680Z,59.12
2023-05-22T05:03:45.879Z,58.53
2023-05-22T05:06:13.976Z,58.00
2023-05-22T05:08:43.255Z,58.06
2023-05-22T05:11:10.497Z,57.61
2023-05-22T05:13:41.189Z,57.60
2023-05-22T05:16:08.345Z,57.69
2023-05-22T05:18:36.042Z,58.05
2023-05-22T05:21:03.256Z,57.75
2023-05-22T05:23:30.342Z,57.10
2023-05-22T05:25:58.313Z,56.86
2023-05-22T05:28:26.592Z,56.87
2023-05-22T05:30:54.648Z,56.61
2023-05-22T05:33:44.699Z,56.00
2023-05-22T05:36:16.855Z,55.90
2023-05-22T05:38:45.742Z,55.79
2023-05-22T05:41:13.611Z,56.20
2023-05-22T05:43:41.402Z,56.07
2023-05-22T05:46:09.736Z,56.17
2023-05-22T05:48:37.314Z,56.02
2023-05-22T05:51:05.590Z,55.92
2023-05-22T05:53:38.002Z,55.77
2023-05-22T05:56:06.912Z,56.01
2023-05-22T05:58:34.722Z,56.28
2023-05-22T06:01:28.314Z,56.35
2023-05-22T06:03:56.260Z,57.02
2023-05-22T06:06:27.208Z,57.09
2023-05-22T06:09:21.240Z,58.00
2023-05-22T06:12:23.976Z,58.26
2023-05-22T06:14:52.551Z,58.32
2023-05-22T06:17:20.373Z,58.47
2023-05-22T06:19:48.791Z,58.53
2023-05-22T06:22:16.374Z,58.45
2023-05-22T06:24:45.492Z,58.31
2023-05-22T06:27:17.634Z,58.19
2023-05-22T06:29:45.299Z,57.81
2023-05-22T06:32:12.767Z,57.64
2023-05-22T06:34:40.922Z,57.55
2023-05-22T06:37:08.922Z,57.60
2023-05-22T06:39:42.385Z,57.96
2023-05-22T06:42:28.539Z,57.86
2023-05-22T06:45:16.211Z,55.24
2023-05-22T06:47:55.136Z,52.85
2023-05-22T06:50:22.858Z,52.55
2023-05-22T06:52:51.034Z,52.32
2023-05-22T06:55:18.701Z,50.57
2023-05-22T06:57:56.289Z,49.37
2023-05-22T07:00:24.572Z,48.17
2023-05-22T07:03:17.005Z,46.56
2023-05-22T07:06:10.522Z,45.49
2023-05-22T07:08:42.202Z,44.28
2023-05-22T07:13:33.414Z,42.45
2023-05-22T07:16:00.629Z,42.58
2023-05-22T07:18:27.938Z,42.53
2023-05-22T07:20:55.304Z,42.45
2023-05-22T07:23:25.612Z,41.78
2023-05-22T07:25:55.687Z,41.39
2023-05-22T07:28:24.943Z,40.78
2023-05-22T07:31:01.299Z,39.78
2023-05-22T07:33:29.076Z,39.24
2023-05-22T07:35:56.827Z,38.92
2023-05-22T07:38:23.985Z,38.40
2023-05-22T07:40:59.528Z,38.15
2023-05-22T07:43:27.392Z,38.03
2023-05-22T07:45:55.029Z,37.43
2023-05-22T07:48:26.509Z,37.43
2023-05-22T07:50:55.013Z,38.05
2023-05-22T07:53:24.332Z,38.33
2023-05-22T07:55:54.019Z,38.41
2023-05-22T07:58:22.270Z,38.29
2023-05-22T08:00:50.080Z,38.29
2023-05-22T08:03:21.039Z,38.36
2023-05-22T08:05:50.381Z,38.51
2023-05-22T08:08:20.322Z,37.97
2023-05-22T08:11:03.232Z,37.64
2023-05-22T08:13:33.675Z,36.57
2023-05-22T08:16:03.788Z,36.92
2023-05-22T08:18:30.849Z,37.97
2023-05-22T08:20:57.980Z,38.79
2023-05-22T08:23:27.289Z,39.13
2023-05-22T08:47:14.821Z,35.16
2023-05-22T08:49:42.610Z,33.95
2023-05-22T08:52:12.565Z,34.41
2023-05-22T08:54:43.360Z,34.86
2023-05-22T08:57:10.407Z,35.40
2023-05-22T08:59:39.279Z,35.36
2023-05-22T09:02:07.018Z,35.13
2023-05-22T09:04:34.508Z,35.00
2023-05-22T09:07:06.035Z,35.45
2023-05-22T09:09:37.458Z,35.27
2023-05-22T09:12:07.201Z,34.79
2023-05-22T09:14:44.630Z,35.54
2023-05-22T09:17:15.057Z,37.77
2023-05-22T09:19:46.988Z,38.05
2023-05-22T09:22:15.230Z,37.92
2023-05-22T09:24:45.277Z,37.28
2023-05-22T09:27:12.410Z,37.14
2023-05-22T09:29:50.161Z,36.34
2023-05-22T09:32:18.232Z,36.62
2023-05-22T09:34:47.248Z,36.53
2023-05-22T09:37:17.268Z,36.66
2023-05-22T09:39:45.313Z,35.41
2023-05-22T09:42:15.470Z,35.89
2023-05-22T09:44:47.607Z,35.66
2023-05-22T09:47:14.757Z,34.44
2023-05-22T09:49:45.288Z,34.51
2023-05-22T09:52:12.883Z,35.46
2023-05-22T09:54:44.811Z,35.04
2023-05-22T09:57:12.033Z,34.85
2023-05-22T09:59:40.438Z,34.31
2023-05-22T10:02:07.705Z,35.08
2023-05-22T10:04:35.186Z,35.19
2023-05-22T10:21:01.751Z,31.79
2023-05-22T10:23:28.901Z,30.77
2023-05-22T10:25:55.905Z,30.81
2023-05-22T10:28:26.435Z,31.04
2023-05-22T10:30:59.085Z,30.32
2023-05-22T10:33:58.132Z,30.47
2023-05-22T10:36:50.586Z,30.48
2023-05-22T10:39:33.015Z,29.25
2023-05-22T10:41:59.950Z,28.96
2023-05-22T10:44:27.005Z,29.40
2023-05-22T10:46:54.149Z,30.04
2023-05-22T10:49:24.391Z,30.34
2023-05-22T10:51:57.773Z,29.94
2023-05-22T10:54:45.208Z,29.25
2023-05-22T10:57:18.222Z,29.17
2023-05-22T10:59:47.495Z,28.84
2023-05-22T11:02:31.531Z,28.73
2023-05-22T11:05:31.217Z,28.21
2023-05-22T11:08:26.407Z,28.63
2023-05-22T11:10:54.227Z,28.89
2023-05-22T11:13:21.271Z,28.86
2023-05-22T11:15:48.522Z,28.79
2023-05-22T11:18:15.776Z,29.31
2023-05-22T11:20:43.068Z,29.34
2023-05-22T11:23:11.216Z,29.10
2023-05-22T11:25:40.357Z,29.10
2023-05-22T11:28:07.646Z,28.97
2023-05-22T11:30:34.917Z,28.84
2023-05-22T11:33:03.029Z,28.26
2023-05-22T11:35:30.634Z,28.16
2023-05-22T11:37:59.123Z,28.90
2023-05-22T11:40:27.643Z,28.94
2023-05-22T11:42:54.654Z,28.95
2023-05-22T11:45:22.097Z,28.43
2023-05-22T11:47:49.574Z,28.57
2023-05-22T11:50:25.844Z,28.27
2023-05-22T11:53:03.116Z,27.07
2023-05-22T11:55:30.782Z,26.70
2023-05-22T11:57:58.753Z,26.90
2023-05-22T12:00:27.606Z,26.48
2023-05-22T12:02:55.524Z,27.11
2023-05-22T12:05:23.473Z,27.84
2023-05-22T12:07:51.241Z,27.83
2023-05-22T12:10:18.900Z,27.77
2023-05-22T12:12:48.247Z,27.44
2023-05-22T12:15:19.753Z,26.91
2023-05-22T12:17:47.462Z,27.54
2023-05-22T12:20:15.296Z,27.42
2023-05-22T12:22:44.142Z,28.00
2023-05-22T12:25:17.022Z,28.57
2023-05-22T12:27:48.218Z,28.65
2023-05-22T12:30:17.120Z,28.37
2023-05-22T12:32:49.737Z,28.49
2023-05-22T12:35:17.955Z,27.51
2023-05-22T12:37:50.476Z,27.16
2023-05-22T12:40:18.695Z,27.14
2023-05-22T12:42:46.360Z,27.61
2023-05-22T12:45:14.156Z,28.17
2023-05-22T12:47:42.060Z,28.96
2023-05-22T12:50:09.764Z,29.61
2023-05-22T12:52:37.531Z,29.99
2023-05-22T12:55:05.801Z,29.00
2023-05-22T12:57:33.466Z,29.99
2023-05-22T13:00:01.154Z,30.38
2023-05-22T13:02:29.029Z,30.32
2023-05-22T13:04:56.680Z,30.07
2023-05-22T13:07:25.236Z,30.05
2023-05-22T13:09:52.898Z,30.16
2023-05-22T13:12:20.890Z,29.56
2023-05-22T13:14:48.632Z,29.68
2023-05-22T13:17:16.500Z,29.88
2023-05-22T13:19:44.570Z,30.43
2023-05-22T13:22:12.319Z,30.21
2023-05-22T13:24:39.793Z,30.52
2023-05-22T13:27:07.665Z,30.31
2023-05-22T13:29:35.530Z,30.00
2023-05-22T13:32:03.026Z,30.02
2023-05-22T13:34:31.737Z,30.23
2023-05-22T13:37:00.674Z,30.57
2023-05-22T13:39:28.438Z,30.57
2023-05-22T13:42:04.057Z,30.20
2023-05-22T13:44:33.704Z,31.36
2023-05-22T13:47:01.613Z,32.06
2023-05-22T13:49:29.231Z,30.93
2023-05-22T13:51:56.895Z,29.40
2023-05-22T13:54:24.645Z,29.79
2023-05-22T13:56:52.317Z,30.27
2023-05-22T13:59:20.106Z,29.95
2023-05-22T14:01:47.739Z,30.17
2023-05-22T14:04:15.606Z,30.62
2023-05-22T14:06:43.575Z,30.40
2023-05-22T14:09:11.448Z,30.62
2023-05-22T14:11:39.012Z,30.54
2023-05-22T14:14:06.867Z,30.03
2023-05-22T14:16:34.513Z,29.46
2023-05-22T14:19:02.275Z,28.25
2023-05-22T14:21:30.276Z,28.05
2023-05-22T14:23:57.941Z,28.06
2023-05-22T14:26:26.517Z,28.40
2023-05-22T14:28:54.374Z,28.87
2023-05-22T14:31:22.829Z,29.22
2023-05-22T14:33:50.756Z,29.86
2023-05-22T14:36:18.692Z,30.63
2023-05-22T14:38:47.128Z,30.10
2023-05-22T14:41:15.052Z,30.19
2023-05-22T14:43:42.707Z,30.56
2023-05-22T14:46:11.334Z,29.39
2023-05-22T14:48:38.957Z,29.68
2023-05-22T14:51:06.613Z,29.17
2023-05-22T14:53:34.491Z,28.61
2023-05-22T14:56:02.147Z,29.49
2023-05-22T14:58:29.650Z,29.58
2023-05-22T15:00:57.276Z,29.55
2023-05-22T15:03:25.142Z,30.06
2023-05-22T15:05:54.884Z,30.67
2023-05-22T15:08:22.509Z,31.31
2023-05-22T15:10:50.294Z,31.51
2023-05-22T15:13:18.039Z,31.25
2023-05-22T15:15:45.699Z,31.89
2023-05-22T15:18:13.768Z,32.01
2023-05-22T15:20:42.517Z,32.30
2023-05-22T15:23:11.145Z,31.32
2023-05-22T15:25:39.035Z,31.34
2023-05-22T15:28:08.213Z,31.74
2023-05-22T15:30:39.766Z,31.58
2023-05-22T15:33:07.381Z,31.80
2023-05-22T15:35:36.156Z,32.43
2023-05-22T15:38:05.114Z,33.02
2023-05-22T15:40:32.867Z,33.73
2023-05-22T15:43:04.266Z,33.39
2023-05-22T15:45:32.218Z,32.77
2023-05-22T15:48:00.319Z,32.86
2023-05-22T15:50:28.348Z,32.58
2023-05-22T15:52:55.981Z,33.29
2023-05-22T15:55:23.760Z,33.88
2023-05-22T15:57:51.733Z,33.80
2023-05-22T16:00:21.791Z,34.24
2023-05-22T16:02:50.006Z,33.89
2023-05-22T16:05:17.925Z,34.02
2023-05-22T16:07:45.511Z,33.62
2023-05-22T16:10:13.214Z,33.23
2023-05-22T16:12:41.819Z,34.26
2023-05-22T16:15:10.825Z,35.16
2023-05-22T16:17:39.415Z,35.74
2023-05-22T16:20:08.706Z,36.40
2023-05-22T16:22:47.263Z,36.75
2023-05-22T16:25:17.197Z,36.44
2023-05-22T16:27:44.874Z,36.31
2023-05-22T16:30:15.021Z,36.82
2023-05-22T16:32:43.572Z,37.90
2023-05-22T16:35:11.981Z,38.85
2023-05-22T16:37:41.106Z,39.69
2023-05-22T16:40:09.849Z,40.40
2023-05-22T16:42:38.530Z,41.42
2023-05-22T16:45:06.912Z,42.10
2023-05-22T16:47:34.817Z,42.28
2023-05-22T16:50:02.555Z,42.77
2023-05-22T16:52:30.767Z,44.02
2023-05-22T16:54:58.487Z,44.80
2023-05-22T16:57:27.478Z,45.48
2023-05-22T16:59:57.171Z,46.47
2023-05-22T17:02:25.806Z,46.94
2023-05-22T17:04:54.765Z,47.68
2023-05-22T17:07:22.430Z,48.35
2023-05-22T17:09:50.093Z,49.23
2023-05-22T17:12:17.651Z,50.46
2023-05-22T17:14:45.309Z,51.29
2023-05-22T17:17:12.973Z,52.20
2023-05-22T17:19:41.193Z,53.49
2023-05-22T17:22:09.321Z,54.16
2023-05-22T17:24:36.886Z,54.77
2023-05-22T17:27:04.542Z,55.30
2023-05-22T17:29:32.206Z,55.96
2023-05-22T17:31:59.926Z,57.12
2023-05-22T17:34:27.642Z,57.31
2023-05-22T17:36:55.294Z,57.64
2023-05-22T17:39:24.092Z,58.04
2023-05-22T17:41:53.392Z,58.69
2023-05-22T17:44:20.943Z,59.33
2023-05-22T17:46:49.844Z,59.92
2023-05-22T17:49:17.598Z,60.32
2023-05-22T17:51:46.696Z,60.51
2023-05-22T17:54:18.659Z,60.48
2023-05-22T17:56:46.320Z,60.56
2023-05-22T17:59:13.881Z,60.64
2023-05-22T18:01:42.637Z,60.70
2023-05-22T18:04:12.624Z,60.81
2023-05-22T18:06:40.246Z,60.78
2023-05-22T18:09:08.944Z,60.65
2023-05-22T18:11:37.429Z,60.61
2023-05-22T18:14:05.083Z,60.60
2023-05-22T18:16:32.812Z,60.70
2023-05-22T18:19:01.145Z,61.29
2023-05-22T18:21:28.885Z,61.85
2023-05-22T18:23:56.648Z,62.33
2023-05-22T18:26:24.223Z,62.55
2023-05-22T18:28:53.512Z,62.70
2023-05-22T18:31:23.425Z,62.99
2023-05-22T18:33:52.625Z,63.24
2023-05-22T18:36:20.285Z,63.55
2023-05-22T18:38:48.059Z,64.06
2023-05-22T18:41:15.710Z,64.34
2023-05-22T18:43:43.687Z,64.46
2023-05-22T18:46:11.346Z,64.48
2023-05-22T18:48:39.009Z,64.41
2023-05-22T18:51:06.669Z,64.34
2023-05-22T18:53:34.383Z,64.45
2023-05-22T18:56:02.319Z,64.42
2023-05-22T18:58:30.022Z,64.55
2023-05-22T19:00:58.049Z,64.84
2023-05-22T19:03:25.699Z,65.54
2023-05-22T19:05:53.573Z,66.55
2023-05-22T19:08:21.467Z,67.33
2023-05-22T19:10:49.099Z,67.62
2023-05-22T19:13:16.976Z,68.06
2023-05-22T19:15:45.036Z,68.12
2023-05-22T19:18:12.719Z,67.87
2023-05-22T19:20:41.065Z,67.65
2023-05-22T19:23:09.972Z,67.76
2023-05-22T19:25:37.631Z,67.71
2023-05-22T19:28:05.508Z,67.55
2023-05-22T19:30:33.061Z,67.31
2023-05-22T19:33:00.856Z,67.11
2023-05-22T19:35:28.495Z,66.82
2023-05-22T19:37:56.058Z,66.76
2023-05-22T19:40:23.934Z,67.04
2023-05-22T19:42:51.691Z,66.96
2023-05-22T19:45:20.064Z,66.73
2023-05-22T19:47:48.499Z,66.31
2023-05-22T19:50:17.439Z,66.13
2023-05-22T19:52:45.503Z,65.90
2023-05-22T19:55:13.169Z,65.79
2023-05-22T19:57:44.675Z,65.78
2023-05-22T20:00:13.279Z,65.74
2023-05-22T20:02:41.116Z,65.10
2023-05-22T20:05:09.614Z,64.23
2023-05-22T20:07:37.231Z,63.69
2023-05-22T20:10:06.990Z,63.49
2023-05-22T20:12:34.697Z,63.49
2023-05-22T20:15:04.301Z,63.44
2023-05-22T20:17:32.627Z,63.42
2023-05-22T20:20:00.780Z,63.28
2023-05-22T20:22:28.425Z,62.68
2023-05-22T20:24:56.690Z,61.97
2023-05-22T20:27:24.369Z,61.52
2023-05-22T20:29:52.557Z,61.29
2023-05-22T20:32:21.619Z,61.36
2023-05-22T20:34:50.403Z,61.43
2023-05-22T20:37:19.209Z,61.83
2023-05-22T20:39:47.676Z,61.74
2023-05-22T20:42:15.338Z,62.05
2023-05-22T20:44:43.313Z,61.96
2023-05-22T20:47:11.182Z,61.76
2023-05-22T20:49:38.950Z,61.40
2023-05-22T20:52:06.841Z,60.88
2023-05-22T20:54:34.893Z,60.79
2023-05-22T20:57:02.869Z,60.62
2023-05-22T20:59:31.228Z,60.80
2023-05-22T21:01:59.302Z,60.77
2023-05-22T21:04:27.225Z,60.84
2023-05-22T21:06:56.058Z,60.78
2023-05-22T21:09:24.659Z,60.46
2023-05-22T21:11:52.305Z,60.39
2023-05-22T21:14:20.028Z,60.22
2023-05-22T21:16:47.900Z,60.06
2023-05-22T21:19:15.726Z,60.20
2023-05-22T21:21:43.670Z,60.61
2023-05-22T21:24:11.651Z,60.91
2023-05-22T21:26:39.305Z,61.32
2023-05-22T21:29:08.608Z,61.64
2023-05-22T21:31:36.418Z,61.92
2023-05-22T21:34:04.033Z,62.23
2023-05-22T21:36:32.874Z,62.66
2023-05-22T21:39:01.325Z,62.68
2023-05-22T21:41:28.971Z,62.53
2023-05-22T21:43:57.452Z,62.52
2023-05-22T21:46:25.293Z,62.51
2023-05-22T21:48:54.105Z,62.61
2023-05-22T21:51:21.765Z,62.78
2023-05-22T21:53:49.446Z,63.14
2023-05-22T21:56:17.324Z,63.49
2023-05-22T21:58:45.272Z,63.73
2023-05-22T22:01:12.931Z,64.08
2023-05-22T22:03:40.719Z,64.53
2023-05-22T22:06:08.569Z,64.58
2023-05-22T22:08:37.961Z,64.66
2023-05-22T22:11:07.161Z,64.76
2023-05-22T22:13:49.768Z,64.32
2023-05-22T22:16:19.362Z,64.29
2023-05-22T22:18:53.404Z,64.08
2023-05-22T22:21:21.155Z,63.93
2023-05-22T22:23:48.817Z,64.23
2023-05-22T22:26:19.664Z,64.99
2023-05-22T22:29:42.026Z,65.48
2023-05-22T22:32:09.888Z,65.58
2023-05-22T22:34:37.850Z,65.82
2023-05-22T22:37:06.525Z,65.85
2023-05-22T22:39:34.395Z,66.01
2023-05-22T22:42:05.333Z,66.16
2023-05-22T22:44:33.209Z,66.60
2023-05-22T22:47:01.992Z,66.54
2023-05-22T22:49:29.662Z,66.48
2023-05-22T22:51:57.930Z,66.41
2023-05-22T22:54:26.009Z,66.23
2023-05-22T22:56:53.892Z,66.26
2023-05-22T22:59:21.534Z,66.22
2023-05-22T23:01:49.277Z,66.32
2023-05-22T23:04:17.227Z,66.54
2023-05-22T23:06:45.133Z,66.69
2023-05-22T23:09:12.900Z,67.04
2023-05-22T23:11:40.684Z,67.41
2023-05-22T23:14:08.631Z,67.44
2023-05-22T23:16:42.707Z,67.50
2023-05-22T23:19:11.066Z,67.48
2023-05-22T23:21:38.683Z,67.55
2023-05-22T23:24:06.696Z,68.02
2023-05-22T23:26:34.420Z,68.28
2023-05-22T23:29:02.103Z,68.62
2023-05-22T23:31:30.904Z,68.85
2023-05-22T23:33:58.938Z,69.12
2023-05-22T23:36:26.605Z,69.32
2023-05-22T23:38:54.275Z,69.61
2023-05-22T23:41:21.927Z,70.06
2023-05-22T23:43:49.702Z,70.49
2023-05-22T23:46:18.411Z,70.85
2023-05-22T23:48:46.152Z,71.27
2023-05-22T23:51:14.713Z,71.78
2023-05-22T23:53:42.591Z,72.22
2023-05-22T23:56:10.295Z,72.60
2023-05-22T23:58:38.431Z,72.60
